Hub


Voltar

 INFORMAÇÕES METEOROLÓGICAS

METAR FOR PAFE


ADDS - METARS form results

(2022 UTC 17 January 2019)
Data provider http://aviationweather.gov/metar/data/
 
METAR text: PAFE 171956Z AUTO 05008KT 10SM CLR 01/M06 A2959 RMK AO2 SLP032 T00061056 FZRANO
Conditions at: PAFE (KAKE , AK, US) observed 1956 UTC 17 January 2019
Temperature: 0.6°C (33°F)
Dewpoint: -5.6°C (22°F) [RH = 63%]
Pressure (altimeter): 29.59 inches Hg (1002.1 mb)
[Sea-level pressure: 1003.2 mb]
Winds: from the NE (50 degrees) at 9 MPH (8 knots; 4.1 m/s)
Visibility: 10 or more miles (16+ km)
Ceiling: at least 12,000 feet AGL
Clouds: sky clear below 12,000 feet AGL
Weather: automated observation with no human augmentation;
there may or may not be significant weather present at this time


 MAPA DO AEROPORTO


 INFORMAÇÕES DA PISTA

Pista 11 Tamanho da pista 4000 ft Largura da pista 100 ft
Elevação da pista 150 ft Ranhura da pista 0 ft Proa da pista 130
Pista 29 Tamanho da pista 4000 ft Largura da pista 100 ft
Elevação da pista 172 ft Ranhura da pista 0 ft Proa da pista 310

 FREQUÊNCIAS DO AEROPORTO

Tipo AWOS Nome AWOS 3 Frequência 135.25 MHZ
Tipo CNTR Nome ANCHORAGE Frequência 118 MHZ
Tipo CTAF Nome CTAF Frequência 122.9 MHZ
Tipo FSS Nome SITKA RDO Frequência 121.3 MHZ

 AUXÍLIOS DE NAVEGAÇÃO PRÓXIMOS AO AEROPORTO

Tipo NDB-DME Nome Kake Frequência 223 KHZ